Time;durP1;ratioP1;P1;durP2;ratioP2;P2;SDS_P1;SDS_P2;PMS_P1;PMS_P2;Temp;Humidity;BMP_temperature;BMP_pressure;BME280_temperature;BME280_humidity;BME280_pressure;Samples;Min_cycle;Max_cycle;Signal;HPM_P1;HPM_P2
2023/06/02 00:01:05;;;;;;;14.10;8.40;;;;;;;-128.00;-1.00;-1.00;105591;1251;1005206;-78
2023/06/02 00:03:40;;;;;;;13.10;8.00;;;;;;;-128.00;-1.00;-1.00;105581;1251;1059510;-78
2023/06/02 00:06:11;;;;;;;13.50;8.00;;;;;;;-128.00;-1.00;-1.00;105613;1251;1004099;-79
2023/06/02 00:08:41;;;;;;;15.50;7.70;;;;;;;-128.00;-1.00;-1.00;105501;1251;1046175;-79
2023/06/02 00:11:08;;;;;;;14.70;8.00;;;;;;;-128.00;-1.00;-1.00;105607;1250;1061794;-78
2023/06/02 00:13:34;;;;;;;12.40;7.90;;;;;;;-128.00;-1.00;-1.00;105641;1251;1004957;-78
2023/06/02 00:16:01;;;;;;;15.60;7.70;;;;;;;-128.00;-1.00;-1.00;105808;1251;1005208;-79
2023/06/02 00:18:27;;;;;;;13.40;8.30;;;;;;;-128.00;-1.00;-1.00;105770;1251;1004346;-78
2023/06/02 00:20:56;;;;;;;14.50;8.60;;;;;;;-128.00;-1.00;-1.00;105785;1251;1004153;-78
2023/06/02 00:23:22;;;;;;;16.30;7.10;;;;;;;-128.00;-1.00;-1.00;105810;1251;1061371;-78
2023/06/02 00:25:49;;;;;;;12.40;7.80;;;;;;;-128.00;-1.00;-1.00;105743;1253;1004314;-79
2023/06/02 00:28:15;;;;;;;11.10;6.60;;;;;;;-128.00;-1.00;-1.00;105736;1251;1003496;-79
2023/06/02 00:30:42;;;;;;;12.90;7.50;;;;;;;-128.00;-1.00;-1.00;105810;1251;1004504;-78
2023/06/02 00:33:08;;;;;;;13.00;7.40;;;;;;;-128.00;-1.00;-1.00;105748;1251;1005265;-78
2023/06/02 00:35:34;;;;;;;10.00;7.20;;;;;;;-128.00;-1.00;-1.00;105583;1251;1005097;-79
2023/06/02 00:38:04;;;;;;;11.50;7.10;;;;;;;-128.00;-1.00;-1.00;105584;1251;1004344;-78
2023/06/02 00:40:31;;;;;;;12.70;6.90;;;;;;;-128.00;-1.00;-1.00;105546;1252;1059845;-79
2023/06/02 00:43:00;;;;;;;16.10;8.50;;;;;;;-128.00;-1.00;-1.00;105519;1253;1004520;-78
2023/06/02 00:45:26;;;;;;;12.00;6.90;;;;;;;-128.00;-1.00;-1.00;105714;1252;1047089;-78
2023/06/02 00:47:53;;;;;;;14.40;7.40;;;;;;;-128.00;-1.00;-1.00;105578;1251;1003334;-77
2023/06/02 00:50:20;;;;;;;12.70;7.00;;;;;;;-128.00;-1.00;-1.00;105543;1251;1004128;-80
2023/06/02 00:52:46;;;;;;;9.60;6.40;;;;;;;-128.00;-1.00;-1.00;105610;1251;1005088;-78
2023/06/02 00:55:13;;;;;;;11.60;7.00;;;;;;;-128.00;-1.00;-1.00;105388;1251;1004681;-77
2023/06/02 00:57:40;;;;;;;14.60;8.20;;;;;;;-128.00;-1.00;-1.00;105606;1251;1004619;-78
2023/06/02 01:00:09;;;;;;;12.40;6.80;;;;;;;-128.00;-1.00;-1.00;105477;1251;1004829;-77
2023/06/02 01:02:35;;;;;;;10.50;7.50;;;;;;;-128.00;-1.00;-1.00;105491;1251;1059222;-78
2023/06/02 01:05:06;;;;;;;11.50;6.70;;;;;;;-128.00;-1.00;-1.00;105577;1251;1003591;-79
2023/06/02 01:07:33;;;;;;;14.80;7.20;;;;;;;-128.00;-1.00;-1.00;105493;1251;1046319;-78
2023/06/02 01:10:00;;;;;;;11.60;6.20;;;;;;;-128.00;-1.00;-1.00;105588;1251;1004169;-78
2023/06/02 01:12:27;;;;;;;9.80;6.60;;;;;;;-128.00;-1.00;-1.00;105457;1251;1004609;-79
2023/06/02 01:14:53;;;;;;;17.70;8.40;;;;;;;-128.00;-1.00;-1.00;105610;1250;1004261;-79
2023/06/02 01:17:20;;;;;;;13.50;7.30;;;;;;;-128.00;-1.00;-1.00;105670;1251;1004704;-77
2023/06/02 01:19:49;;;;;;;12.50;7.60;;;;;;;-128.00;-1.00;-1.00;105713;1251;1004564;-78
2023/06/02 01:22:19;;;;;;;10.10;7.10;;;;;;;-128.00;-1.00;-1.00;105806;1251;1047313;-79
2023/06/02 01:24:48;;;;;;;11.40;7.70;;;;;;;-128.00;-1.00;-1.00;105405;1251;1061134;-79
2023/06/02 01:27:16;;;;;;;11.00;6.90;;;;;;;-128.00;-1.00;-1.00;105626;1250;1004156;-79
2023/06/02 01:29:43;;;;;;;8.60;7.30;;;;;;;-128.00;-1.00;-1.00;105487;1251;1004145;-80
2023/06/02 01:32:21;;;;;;;8.20;5.90;;;;;;;-128.00;-1.00;-1.00;105470;1251;1004914;-79
2023/06/02 01:34:53;;;;;;;9.50;5.80;;;;;;;-128.00;-1.00;-1.00;105493;1251;1045926;-79
2023/06/02 01:37:21;;;;;;;13.00;5.70;;;;;;;-128.00;-1.00;-1.00;105773;1251;1062009;-78
2023/06/02 01:39:47;;;;;;;8.40;5.80;;;;;;;-128.00;-1.00;-1.00;105630;1250;1004275;-78
2023/06/02 01:42:14;;;;;;;9.40;6.80;;;;;;;-128.00;-1.00;-1.00;105373;1254;1005735;-79
2023/06/02 01:44:41;;;;;;;12.60;6.00;;;;;;;-128.00;-1.00;-1.00;105509;1252;1005060;-78
2023/06/02 01:47:08;;;;;;;11.30;6.30;;;;;;;-128.00;-1.00;-1.00;105568;1252;1003308;-77
2023/06/02 01:49:34;;;;;;;12.10;6.60;;;;;;;-128.00;-1.00;-1.00;105580;1251;1005294;-78
2023/06/02 01:52:02;;;;;;;11.70;6.50;;;;;;;-128.00;-1.00;-1.00;105598;1250;1004773;-78
2023/06/02 01:54:28;;;;;;;9.60;6.30;;;;;;;-128.00;-1.00;-1.00;105579;1251;1005101;-77
2023/06/02 01:56:54;;;;;;;10.30;6.00;;;;;;;-128.00;-1.00;-1.00;105596;1251;1004493;-77
2023/06/02 01:59:22;;;;;;;14.90;7.30;;;;;;;-128.00;-1.00;-1.00;105590;1251;1004381;-77
2023/06/02 02:01:48;;;;;;;11.10;6.70;;;;;;;-128.00;-1.00;-1.00;105628;1250;1004626;-79
2023/06/02 02:04:15;;;;;;;14.50;7.50;;;;;;;-128.00;-1.00;-1.00;105584;1251;1004573;-79
2023/06/02 02:06:45;;;;;;;12.50;6.30;;;;;;;-128.00;-1.00;-1.00;105614;1251;1005166;-77
2023/06/02 02:09:11;;;;;;;12.80;7.00;;;;;;;-128.00;-1.00;-1.00;105810;1251;1045670;-77
2023/06/02 02:11:38;;;;;;;23.60;8.60;;;;;;;-128.00;-1.00;-1.00;105782;1251;1003852;-77
2023/06/02 02:14:04;;;;;;;14.40;7.50;;;;;;;-128.00;-1.00;-1.00;105480;1251;1005390;-78
2023/06/02 02:16:31;;;;;;;13.60;7.30;;;;;;;-128.00;-1.00;-1.00;105632;1251;1004964;-77
2023/06/02 02:18:58;;;;;;;15.80;6.90;;;;;;;-128.00;-1.00;-1.00;105471;1251;1005971;-77
2023/06/02 02:21:28;;;;;;;9.30;6.00;;;;;;;-128.00;-1.00;-1.00;105468;1251;1004145;-79
2023/06/02 02:23:54;;;;;;;14.30;7.10;;;;;;;-128.00;-1.00;-1.00;105583;1251;1047027;-79
2023/06/02 02:26:21;;;;;;;12.00;6.90;;;;;;;-128.00;-1.00;-1.00;105595;1251;1004143;-77
2023/06/02 02:28:48;;;;;;;11.40;6.90;;;;;;;-128.00;-1.00;-1.00;105802;1251;1005241;-77
2023/06/02 02:31:15;;;;;;;10.50;6.20;;;;;;;-128.00;-1.00;-1.00;105769;1251;1004043;-79
2023/06/02 02:33:41;;;;;;;10.20;5.80;;;;;;;-128.00;-1.00;-1.00;105805;1251;1004449;-79
2023/06/02 02:36:08;;;;;;;9.90;6.80;;;;;;;-128.00;-1.00;-1.00;105751;1251;1004548;-77
2023/06/02 02:38:34;;;;;;;9.10;6.80;;;;;;;-128.00;-1.00;-1.00;105767;1251;1004117;-77
2023/06/02 02:41:01;;;;;;;11.20;6.30;;;;;;;-128.00;-1.00;-1.00;105687;1252;1004434;-77
2023/06/02 02:43:27;;;;;;;11.10;7.40;;;;;;;-128.00;-1.00;-1.00;105719;1252;1004840;-79
2023/06/02 02:45:54;;;;;;;9.20;6.00;;;;;;;-128.00;-1.00;-1.00;105763;1253;1003883;-78
2023/06/02 02:48:20;;;;;;;10.00;6.20;;;;;;;-128.00;-1.00;-1.00;105741;1251;1003896;-77
2023/06/02 02:50:48;;;;;;;12.00;7.70;;;;;;;-128.00;-1.00;-1.00;105818;1251;1003793;-77
2023/06/02 02:53:16;;;;;;;11.20;6.50;;;;;;;-128.00;-1.00;-1.00;105749;1251;1004797;-77
2023/06/02 02:55:44;;;;;;;8.60;6.40;;;;;;;-128.00;-1.00;-1.00;105757;1251;1003521;-77
2023/06/02 02:58:10;;;;;;;10.80;6.40;;;;;;;-128.00;-1.00;-1.00;105609;1251;1003700;-78
2023/06/02 03:00:37;;;;;;;7.90;5.90;;;;;;;-128.00;-1.00;-1.00;105591;1251;1003378;-78
2023/06/02 03:03:05;;;;;;;10.90;6.30;;;;;;;-128.00;-1.00;-1.00;105597;1251;1004136;-79
2023/06/02 03:05:34;;;;;;;11.40;6.70;;;;;;;-128.00;-1.00;-1.00;105582;1251;1004057;-80
2023/06/02 03:08:02;;;;;;;10.40;6.00;;;;;;;-128.00;-1.00;-1.00;105605;1251;1059776;-79
2023/06/02 03:10:28;;;;;;;8.10;5.70;;;;;;;-128.00;-1.00;-1.00;105344;1251;1005706;-77
2023/06/02 03:12:55;;;;;;;11.30;6.20;;;;;;;-128.00;-1.00;-1.00;105587;1251;1003665;-77
2023/06/02 03:15:21;;;;;;;9.90;6.70;;;;;;;-128.00;-1.00;-1.00;105606;1250;1004587;-78
2023/06/02 03:17:50;;;;;;;11.70;7.80;;;;;;;-128.00;-1.00;-1.00;105626;1251;1006095;-77
2023/06/02 03:20:17;;;;;;;;;;;;;;;-128.00;-1.00;-1.00;105702;1251;1059425;-77
2023/06/02 03:22:44;;;;;;;9.50;6.70;;;;;;;-128.00;-1.00;-1.00;105594;1251;1004597;-77
2023/06/02 03:25:10;;;;;;;11.50;6.60;;;;;;;-128.00;-1.00;-1.00;105482;1251;1004125;-77
2023/06/02 03:27:37;;;;;;;10.50;6.60;;;;;;;-128.00;-1.00;-1.00;105639;1250;1005339;-78
2023/06/02 03:30:04;;;;;;;9.30;6.60;;;;;;;-128.00;-1.00;-1.00;105598;1251;1004406;-80
2023/06/02 03:32:30;;;;;;;10.30;6.50;;;;;;;-128.00;-1.00;-1.00;105592;1251;1004500;-77
2023/06/02 03:34:56;;;;;;;13.50;7.40;;;;;;;-128.00;-1.00;-1.00;105608;1251;1004193;-79
2023/06/02 03:37:23;;;;;;;11.20;6.00;;;;;;;-128.00;-1.00;-1.00;105611;1251;1004144;-77
2023/06/02 03:39:49;;;;;;;9.90;6.00;;;;;;;-128.00;-1.00;-1.00;105611;1251;1004894;-79
2023/06/02 03:42:16;;;;;;;10.40;6.10;;;;;;;-128.00;-1.00;-1.00;105551;1253;1004529;-79
2023/06/02 03:44:42;;;;;;;11.40;6.30;;;;;;;-128.00;-1.00;-1.00;105547;1253;1004014;-79
2023/06/02 03:47:09;;;;;;;11.80;6.60;;;;;;;-128.00;-1.00;-1.00;105401;1252;1004188;-79
2023/06/02 03:49:36;;;;;;;12.80;6.50;;;;;;;-128.00;-1.00;-1.00;105607;1251;1004747;-77
2023/06/02 03:52:03;;;;;;;11.80;6.60;;;;;;;-128.00;-1.00;-1.00;105530;1251;1004382;-77
2023/06/02 03:54:30;;;;;;;13.90;7.20;;;;;;;-128.00;-1.00;-1.00;105757;1251;1004605;-80
2023/06/02 03:56:56;;;;;;;11.50;6.30;;;;;;;-128.00;-1.00;-1.00;105595;1251;1004726;-79
2023/06/02 03:59:22;;;;;;;9.80;6.30;;;;;;;-128.00;-1.00;-1.00;105572;1251;1004401;-78
2023/06/02 04:01:49;;;;;;;9.20;6.00;;;;;;;-128.00;-1.00;-1.00;105607;1251;1004064;-77
2023/06/02 04:04:15;;;;;;;9.20;6.30;;;;;;;-128.00;-1.00;-1.00;105588;1251;1003764;-77
2023/06/02 04:06:42;;;;;;;7.70;5.70;;;;;;;-128.00;-1.00;-1.00;105642;1251;1005245;-79
2023/06/02 04:09:12;;;;;;;13.10;6.00;;;;;;;-128.00;-1.00;-1.00;105611;1251;1005047;-79
2023/06/02 04:11:39;;;;;;;15.00;6.10;;;;;;;-128.00;-1.00;-1.00;105577;1251;1045946;-78
2023/06/02 04:14:05;;;;;;;14.00;6.10;;;;;;;-128.00;-1.00;-1.00;105625;1251;1004038;-79
2023/06/02 04:16:32;;;;;;;17.00;7.30;;;;;;;-128.00;-1.00;-1.00;105598;1250;1004366;-77
2023/06/02 04:18:58;;;;;;;10.70;6.30;;;;;;;-128.00;-1.00;-1.00;105623;1251;1004834;-79
2023/06/02 04:21:25;;;;;;;12.90;6.50;;;;;;;-128.00;-1.00;-1.00;105573;1251;1003525;-79
2023/06/02 04:23:51;;;;;;;9.30;6.10;;;;;;;-128.00;-1.00;-1.00;105579;1251;1004832;-77
2023/06/02 04:26:18;;;;;;;16.30;6.80;;;;;;;-128.00;-1.00;-1.00;105627;1251;1004646;-79
2023/06/02 04:28:45;;;;;;;9.60;6.50;;;;;;;-128.00;-1.00;-1.00;105631;1251;1004126;-78
2023/06/02 04:31:11;;;;;;;13.60;7.70;;;;;;;-128.00;-1.00;-1.00;105622;1251;1004056;-79
2023/06/02 04:33:37;;;;;;;18.70;11.20;;;;;;;-128.00;-1.00;-1.00;105597;1251;1004785;-79
2023/06/02 04:36:05;;;;;;;20.60;11.40;;;;;;;-128.00;-1.00;-1.00;105569;1251;1003929;-79
2023/06/02 04:38:32;;;;;;;11.90;8.10;;;;;;;-128.00;-1.00;-1.00;105578;1251;1004353;-77
2023/06/02 04:41:01;;;;;;;12.10;8.10;;;;;;;-128.00;-1.00;-1.00;105584;1251;1004666;-78
2023/06/02 04:43:27;;;;;;;13.50;7.80;;;;;;;-128.00;-1.00;-1.00;105551;1253;1058031;-80
2023/06/02 04:45:56;;;;;;;13.20;7.50;;;;;;;-128.00;-1.00;-1.00;105536;1253;1004003;-78
2023/06/02 04:48:22;;;;;;;;;;;;;;;-128.00;-1.00;-1.00;105588;1251;1046660;-78
2023/06/02 04:50:49;;;;;;;11.70;7.80;;;;;;;-128.00;-1.00;-1.00;105626;1251;1004111;-78
2023/06/02 04:53:15;;;;;;;17.40;10.80;;;;;;;-128.00;-1.00;-1.00;105618;1251;1004288;-79
2023/06/02 04:55:44;;;;;;;24.40;9.70;;;;;;;-128.00;-1.00;-1.00;105508;1252;1004080;-78
2023/06/02 04:58:10;;;;;;;12.70;8.10;;;;;;;-128.00;-1.00;-1.00;105415;1254;1059307;-79
2023/06/02 05:00:37;;;;;;;16.60;7.80;;;;;;;-128.00;-1.00;-1.00;105430;1252;1004157;-78
2023/06/02 05:03:03;;;;;;;16.00;7.70;;;;;;;-128.00;-1.00;-1.00;105440;1254;1004161;-78
2023/06/02 05:05:30;;;;;;;17.30;7.80;;;;;;;-128.00;-1.00;-1.00;105467;1252;1004293;-78
2023/06/02 05:07:56;;;;;;;12.40;7.10;;;;;;;-128.00;-1.00;-1.00;105473;1251;1004152;-79
2023/06/02 05:10:23;;;;;;;13.20;6.90;;;;;;;-128.00;-1.00;-1.00;105500;1252;1004645;-79
2023/06/02 05:12:49;;;;;;;11.50;6.20;;;;;;;-128.00;-1.00;-1.00;105561;1251;1005277;-79
2023/06/02 05:15:16;;;;;;;11.20;7.20;;;;;;;-128.00;-1.00;-1.00;105599;1251;1005695;-78
2023/06/02 05:17:43;;;;;;;9.10;6.30;;;;;;;-128.00;-1.00;-1.00;105459;1254;1004766;-79
2023/06/02 05:20:10;;;;;;;11.00;6.40;;;;;;;-128.00;-1.00;-1.00;105398;1254;1004265;-77
2023/06/02 05:22:36;;;;;;;15.30;8.00;;;;;;;-128.00;-1.00;-1.00;105437;1252;1004202;-78
2023/06/02 05:25:03;;;;;;;12.70;7.00;;;;;;;-128.00;-1.00;-1.00;105493;1256;1003406;-78
2023/06/02 05:27:30;;;;;;;10.00;6.70;;;;;;;-128.00;-1.00;-1.00;105533;1253;1004676;-79
2023/06/02 05:29:56;;;;;;;13.60;7.70;;;;;;;-128.00;-1.00;-1.00;105454;1252;1004368;-80
2023/06/02 05:32:24;;;;;;;11.20;6.70;;;;;;;-128.00;-1.00;-1.00;105615;1251;1004297;-78
2023/06/02 05:34:51;;;;;;;18.60;8.40;;;;;;;-128.00;-1.00;-1.00;105570;1251;1003899;-79
2023/06/02 05:37:18;;;;;;;17.60;6.80;;;;;;;-128.00;-1.00;-1.00;105545;1252;1004254;-78
2023/06/02 05:39:45;;;;;;;13.10;6.90;;;;;;;-128.00;-1.00;-1.00;105565;1253;1004541;-78
2023/06/02 05:42:11;;;;;;;12.50;7.30;;;;;;;-128.00;-1.00;-1.00;105562;1251;1003989;-78
2023/06/02 05:44:38;;;;;;;12.60;7.20;;;;;;;-128.00;-1.00;-1.00;105618;1251;1003801;-78
2023/06/02 05:47:04;;;;;;;12.60;8.00;;;;;;;-128.00;-1.00;-1.00;105506;1253;1004614;-79
2023/06/02 05:49:31;;;;;;;27.20;8.20;;;;;;;-128.00;-1.00;-1.00;105511;1253;1004447;-78
2023/06/02 05:51:57;;;;;;;14.00;6.50;;;;;;;-128.00;-1.00;-1.00;105525;1251;1003856;-78
2023/06/02 05:54:24;;;;;;;11.60;7.20;;;;;;;-128.00;-1.00;-1.00;105553;1252;1004462;-80
2023/06/02 05:56:50;;;;;;;15.70;7.60;;;;;;;-128.00;-1.00;-1.00;105488;1252;1004923;-78
2023/06/02 05:59:17;;;;;;;11.80;6.80;;;;;;;-128.00;-1.00;-1.00;105567;1253;1004545;-78
2023/06/02 06:01:43;;;;;;;12.60;7.20;;;;;;;-128.00;-1.00;-1.00;105532;1253;1003723;-80
2023/06/02 06:04:10;;;;;;;12.50;8.10;;;;;;;-128.00;-1.00;-1.00;105515;1254;1003908;-80
2023/06/02 06:06:36;;;;;;;13.80;7.50;;;;;;;-128.00;-1.00;-1.00;105463;1254;1005345;-78
2023/06/02 06:09:05;;;;;;;16.20;9.00;;;;;;;-128.00;-1.00;-1.00;105501;1254;1004360;-79
2023/06/02 06:11:31;;;;;;;20.40;8.60;;;;;;;-128.00;-1.00;-1.00;105551;1251;1058663;-78
2023/06/02 06:14:00;;;;;;;15.10;9.10;;;;;;;-128.00;-1.00;-1.00;105516;1251;1006386;-80
2023/06/02 06:16:27;;;;;;;16.60;10.20;;;;;;;-128.00;-1.00;-1.00;105481;1254;1048743;-78
2023/06/02 06:18:55;;;;;;;16.60;9.30;;;;;;;-128.00;-1.00;-1.00;105339;1254;1004205;-80
2023/06/02 06:21:22;;;;;;;21.50;10.60;;;;;;;-128.00;-1.00;-1.00;105509;1251;1004105;-80
2023/06/02 06:23:49;;;;;;;27.70;11.30;;;;;;;-128.00;-1.00;-1.00;105452;1252;1004705;-80
2023/06/02 06:26:16;;;;;;;26.20;12.40;;;;;;;-128.00;-1.00;-1.00;105367;1254;1004219;-78
2023/06/02 06:28:42;;;;;;;22.10;11.30;;;;;;;-128.00;-1.00;-1.00;105476;1254;1004744;-80
2023/06/02 06:31:09;;;;;;;14.80;7.20;;;;;;;-128.00;-1.00;-1.00;105487;1251;1005159;-80
2023/06/02 06:33:35;;;;;;;16.00;8.20;;;;;;;-128.00;-1.00;-1.00;105502;1256;1005812;-78
2023/06/02 06:36:02;;;;;;;15.40;7.60;;;;;;;-128.00;-1.00;-1.00;105445;1251;1003882;-80
2023/06/02 06:38:28;;;;;;;14.50;8.10;;;;;;;-128.00;-1.00;-1.00;105453;1252;1004390;-78
2023/06/02 06:40:55;;;;;;;16.40;8.20;;;;;;;-128.00;-1.00;-1.00;105466;1254;1004287;-80
2023/06/02 06:43:21;;;;;;;12.30;7.80;;;;;;;-128.00;-1.00;-1.00;105465;1253;1004302;-78
2023/06/02 06:45:48;;;;;;;10.70;7.30;;;;;;;-128.00;-1.00;-1.00;105415;1252;1004377;-78
2023/06/02 06:48:14;;;;;;;12.90;6.90;;;;;;;-128.00;-1.00;-1.00;105282;1254;1004788;-78
2023/06/02 06:50:41;;;;;;;12.70;6.00;;;;;;;-128.00;-1.00;-1.00;105415;1253;1005317;-80
2023/06/02 06:53:08;;;;;;;9.30;5.40;;;;;;;-128.00;-1.00;-1.00;105517;1254;1005533;-80
2023/06/02 06:55:34;;;;;;;10.50;5.20;;;;;;;-128.00;-1.00;-1.00;105438;1252;1004530;-78
2023/06/02 06:58:01;;;;;;;9.10;5.30;;;;;;;-128.00;-1.00;-1.00;105455;1253;1004998;-80
2023/06/02 07:00:27;;;;;;;8.00;4.70;;;;;;;-128.00;-1.00;-1.00;105396;1254;1005075;-79
2023/06/02 07:02:54;;;;;;;9.40;4.30;;;;;;;-128.00;-1.00;-1.00;105407;1253;1005164;-80
2023/06/02 07:05:21;;;;;;;9.70;4.80;;;;;;;-128.00;-1.00;-1.00;105463;1251;1005343;-79
2023/06/02 07:07:48;;;;;;;13.00;5.30;;;;;;;-128.00;-1.00;-1.00;105474;1254;1005395;-78
2023/06/02 07:10:14;;;;;;;8.00;4.50;;;;;;;-128.00;-1.00;-1.00;105501;1251;1004214;-78
2023/06/02 07:12:41;;;;;;;10.90;4.50;;;;;;;-128.00;-1.00;-1.00;105543;1251;1004602;-78
2023/06/02 07:15:07;;;;;;;8.40;4.80;;;;;;;-128.00;-1.00;-1.00;105568;1254;1004979;-78
2023/06/02 07:17:34;;;;;;;12.50;5.10;;;;;;;-128.00;-1.00;-1.00;105631;1256;1004536;-78
2023/06/02 07:20:02;;;;;;;7.60;4.30;;;;;;;-128.00;-1.00;-1.00;105500;1254;1004116;-78
2023/06/02 07:22:28;;;;;;;9.40;4.80;;;;;;;-128.00;-1.00;-1.00;105462;1254;1004874;-81
2023/06/02 07:24:54;;;;;;;13.00;4.50;;;;;;;-128.00;-1.00;-1.00;105441;1253;1004167;-80
2023/06/02 07:27:21;;;;;;;9.40;5.00;;;;;;;-128.00;-1.00;-1.00;105508;1254;1004532;-78
2023/06/02 07:29:47;;;;;;;12.70;4.60;;;;;;;-128.00;-1.00;-1.00;105481;1254;1005281;-81
2023/06/02 07:32:14;;;;;;;11.90;5.40;;;;;;;-128.00;-1.00;-1.00;105526;1253;1004483;-78
2023/06/02 07:34:40;;;;;;;10.80;4.90;;;;;;;-128.00;-1.00;-1.00;105342;1253;1004784;-79
2023/06/02 07:37:07;;;;;;;13.00;5.90;;;;;;;-128.00;-1.00;-1.00;105476;1254;1005900;-80
2023/06/02 07:39:33;;;;;;;13.50;6.20;;;;;;;-128.00;-1.00;-1.00;105474;1253;1003926;-80
2023/06/02 07:42:00;;;;;;;9.10;5.80;;;;;;;-128.00;-1.00;-1.00;105473;1252;1004725;-80
2023/06/02 07:44:26;;;;;;;11.20;5.70;;;;;;;-128.00;-1.00;-1.00;105441;1251;1004867;-80
2023/06/02 07:46:53;;;;;;;14.20;6.00;;;;;;;-128.00;-1.00;-1.00;105470;1253;1003876;-79
2023/06/02 07:49:19;;;;;;;10.80;5.80;;;;;;;-128.00;-1.00;-1.00;105445;1253;1003896;-78
2023/06/02 07:51:46;;;;;;;12.30;5.60;;;;;;;-128.00;-1.00;-1.00;105448;1251;1004610;-80
2023/06/02 07:54:12;;;;;;;12.00;6.30;;;;;;;-128.00;-1.00;-1.00;105469;1254;1003853;-79
2023/06/02 07:56:38;;;;;;;10.00;5.60;;;;;;;-128.00;-1.00;-1.00;105472;1252;1004396;-81
2023/06/02 07:59:05;;;;;;;10.00;5.10;;;;;;;-128.00;-1.00;-1.00;105485;1252;1004002;-79
2023/06/02 08:01:31;;;;;;;11.40;5.40;;;;;;;-128.00;-1.00;-1.00;105430;1253;1004221;-79
2023/06/02 08:03:58;;;;;;;10.40;5.50;;;;;;;-128.00;-1.00;-1.00;105449;1256;1004611;-81
2023/06/02 08:06:24;;;;;;;10.40;5.80;;;;;;;-128.00;-1.00;-1.00;105414;1252;1004270;-80
2023/06/02 08:08:51;;;;;;;9.60;5.50;;;;;;;-128.00;-1.00;-1.00;105480;1254;1004261;-81
2023/06/02 08:11:17;;;;;;;12.40;5.20;;;;;;;-128.00;-1.00;-1.00;105489;1253;1003518;-79
2023/06/02 08:13:44;;;;;;;12.50;6.00;;;;;;;-128.00;-1.00;-1.00;105516;1253;1004368;-78
2023/06/02 08:16:10;;;;;;;11.80;6.10;;;;;;;-128.00;-1.00;-1.00;105488;1253;1005025;-79
2023/06/02 08:18:37;;;;;;;10.90;5.40;;;;;;;-128.00;-1.00;-1.00;105512;1254;1004515;-81
2023/06/02 08:21:04;;;;;;;10.10;6.40;;;;;;;-128.00;-1.00;-1.00;105485;1252;1003332;-79
2023/06/02 08:23:32;;;;;;;12.10;5.50;;;;;;;-128.00;-1.00;-1.00;105503;1254;1004576;-79
2023/06/02 08:25:59;;;;;;;11.00;6.50;;;;;;;-128.00;-1.00;-1.00;105469;1253;1004168;-81
2023/06/02 08:28:29;;;;;;;14.20;6.40;;;;;;;-128.00;-1.00;-1.00;105530;1253;1003485;-78
2023/06/02 08:30:58;;;;;;;14.00;6.00;;;;;;;-128.00;-1.00;-1.00;105305;1251;1046632;-79
2023/06/02 08:33:24;;;;;;;11.30;5.60;;;;;;;-128.00;-1.00;-1.00;105447;1254;1062264;-79
2023/06/02 08:35:52;;;;;;;11.90;5.40;;;;;;;-128.00;-1.00;-1.00;105457;1254;1005936;-81
2023/06/02 08:38:18;;;;;;;11.00;6.70;;;;;;;-128.00;-1.00;-1.00;105466;1254;1004197;-79
2023/06/02 08:40:46;;;;;;;12.50;6.60;;;;;;;-128.00;-1.00;-1.00;105471;1254;1004651;-79
2023/06/02 08:43:13;;;;;;;14.20;6.70;;;;;;;-128.00;-1.00;-1.00;105484;1254;1004427;-81
2023/06/02 08:45:45;;;;;;;14.30;6.50;;;;;;;-128.00;-1.00;-1.00;105399;1254;1004108;-79
2023/06/02 08:48:15;;;;;;;15.60;6.50;;;;;;;-128.00;-1.00;-1.00;105342;1254;1059016;-82
2023/06/02 08:50:44;;;;;;;13.30;6.30;;;;;;;-128.00;-1.00;-1.00;105536;1253;1058850;-78
2023/06/02 08:53:13;;;;;;;8.30;5.90;;;;;;;-128.00;-1.00;-1.00;105509;1254;1044935;-79
2023/06/02 08:55:41;;;;;;;14.80;7.20;;;;;;;-128.00;-1.00;-1.00;105682;1252;1047797;-79
2023/06/02 08:58:10;;;;;;;15.70;6.40;;;;;;;-128.00;-1.00;-1.00;105525;1254;1003766;-81
2023/06/02 09:00:37;;;;;;;11.70;5.60;;;;;;;-128.00;-1.00;-1.00;105422;1254;1057885;-79
2023/06/02 09:03:04;;;;;;;14.50;6.90;;;;;;;-128.00;-1.00;-1.00;105571;1253;1004034;-80
2023/06/02 09:05:32;;;;;;;13.50;6.80;;;;;;;-128.00;-1.00;-1.00;105479;1253;1004600;-79
2023/06/02 09:08:11;;;;;;;13.20;5.90;;;;;;;-128.00;-1.00;-1.00;105520;1254;1004313;-79
2023/06/02 09:10:40;;;;;;;14.00;7.00;;;;;;;-128.00;-1.00;-1.00;105512;1253;1060425;-81
2023/06/02 09:13:27;;;;;;;11.80;6.60;;;;;;;-128.00;-1.00;-1.00;105525;1254;1057567;-81
2023/06/02 09:15:58;;;;;;;11.00;6.50;;;;;;;-128.00;-1.00;-1.00;105480;1253;1059649;-79
2023/06/02 09:18:25;;;;;;;9.00;6.10;;;;;;;-128.00;-1.00;-1.00;105496;1254;1044137;-82
2023/06/02 09:20:52;;;;;;;9.10;5.90;;;;;;;-128.00;-1.00;-1.00;105515;1254;1004177;-81
2023/06/02 09:23:19;;;;;;;13.70;5.60;;;;;;;-128.00;-1.00;-1.00;105493;1253;1004647;-81
2023/06/02 09:25:45;;;;;;;14.90;6.10;;;;;;;-128.00;-1.00;-1.00;105521;1253;1004777;-81
2023/06/02 09:28:12;;;;;;;13.80;5.40;;;;;;;-128.00;-1.00;-1.00;105532;1254;1005321;-79
2023/06/02 09:30:38;;;;;;;12.30;6.10;;;;;;;-128.00;-1.00;-1.00;105452;1256;1003992;-79
2023/06/02 09:33:06;;;;;;;9.20;5.10;;;;;;;-128.00;-1.00;-1.00;105547;1254;1004409;-81
2023/06/02 09:35:44;;;;;;;8.20;4.90;;;;;;;-128.00;-1.00;-1.00;105390;1254;1063254;-79
2023/06/02 09:38:12;;;;;;;9.40;4.80;;;;;;;-128.00;-1.00;-1.00;105491;1254;1058568;-81
2023/06/02 09:40:39;;;;;;;12.70;4.70;;;;;;;-128.00;-1.00;-1.00;105538;1253;1004237;-81
2023/06/02 09:43:08;;;;;;;11.50;6.00;;;;;;;-128.00;-1.00;-1.00;105491;1254;1005347;-81
2023/06/02 09:45:58;;;;;;;17.30;6.10;;;;;;;-128.00;-1.00;-1.00;105459;1251;1046977;-81
2023/06/02 09:48:24;;;;;;;15.60;7.30;;;;;;;-128.00;-1.00;-1.00;105548;1251;1060757;-81
2023/06/02 09:50:51;;;;;;;35.40;21.30;;;;;;;-128.00;-1.00;-1.00;105332;1254;1004301;-80
2023/06/02 09:53:18;;;;;;;10.40;6.30;;;;;;;-128.00;-1.00;-1.00;105473;1253;1003908;-81
2023/06/02 09:55:45;;;;;;;12.20;5.00;;;;;;;-128.00;-1.00;-1.00;105389;1252;1004379;-82
2023/06/02 09:58:12;;;;;;;10.10;5.60;;;;;;;-128.00;-1.00;-1.00;105493;1251;1005298;-81
2023/06/02 10:00:39;;;;;;;9.90;5.90;;;;;;;-128.00;-1.00;-1.00;105476;1252;1004379;-79
2023/06/02 10:03:06;;;;;;;13.50;6.20;;;;;;;-128.00;-1.00;-1.00;105516;1256;1005444;-79
2023/06/02 10:05:33;;;;;;;10.10;5.80;;;;;;;-128.00;-1.00;-1.00;105501;1251;1004297;-79
2023/06/02 10:08:16;;;;;;;12.20;6.50;;;;;;;-128.00;-1.00;-1.00;105435;1253;1004200;-79
2023/06/02 10:11:10;;;;;;;11.10;5.70;;;;;;;-128.00;-1.00;-1.00;105453;1256;1046746;-81
2023/06/02 10:14:01;;;;;;;9.40;5.10;;;;;;;-128.00;-1.00;-1.00;105353;1251;1061750;-81
2023/06/02 10:16:40;;;;;;;13.50;6.10;;;;;;;-128.00;-1.00;-1.00;105445;1254;1059466;-78
2023/06/02 10:19:14;;;;;;;15.20;6.30;;;;;;;-128.00;-1.00;-1.00;105438;1252;1059451;-81
2023/06/02 10:22:02;;;;;;;15.20;5.50;;;;;;;-128.00;-1.00;-1.00;105315;1255;1045164;-81
2023/06/02 10:25:05;;;;;;;11.50;5.60;;;;;;;-128.00;-1.00;-1.00;105471;1253;1046796;-79
2023/06/02 10:27:34;;;;;;;13.40;6.20;;;;;;;-128.00;-1.00;-1.00;105503;1254;1061039;-79
2023/06/02 10:30:00;;;;;;;11.70;4.60;;;;;;;-128.00;-1.00;-1.00;105564;1251;1059141;-82
2023/06/02 10:32:33;;;;;;;11.20;4.70;;;;;;;-128.00;-1.00;-1.00;105320;1254;1004277;-81
2023/06/02 10:34:59;;;;;;;12.30;5.20;;;;;;;-128.00;-1.00;-1.00;105414;1254;1045119;-79
2023/06/02 10:37:26;;;;;;;7.60;5.10;;;;;;;-128.00;-1.00;-1.00;105459;1254;1006108;-81
2023/06/02 10:39:54;;;;;;;11.20;5.50;;;;;;;-128.00;-1.00;-1.00;105491;1254;1004330;-81
2023/06/02 10:42:22;;;;;;;11.00;5.10;;;;;;;-128.00;-1.00;-1.00;105492;1251;1005187;-81
2023/06/02 10:44:48;;;;;;;12.50;5.40;;;;;;;-128.00;-1.00;-1.00;105561;1251;1004543;-81
2023/06/02 10:47:17;;;;;;;16.50;5.80;;;;;;;-128.00;-1.00;-1.00;105522;1253;1004178;-79
2023/06/02 10:50:03;;;;;;;14.40;5.30;;;;;;;-128.00;-1.00;-1.00;105502;1254;1047390;-79
2023/06/02 10:53:04;;;;;;;14.90;6.00;;;;;;;-128.00;-1.00;-1.00;105416;1255;1060550;-81
2023/06/02 10:55:31;;;;;;;8.90;5.60;;;;;;;-128.00;-1.00;-1.00;105499;1254;1058394;-80
2023/06/02 10:58:03;;;;;;;10.00;5.40;;;;;;;-128.00;-1.00;-1.00;105544;1254;1004586;-80
2023/06/02 11:00:29;;;;;;;9.50;4.90;;;;;;;-128.00;-1.00;-1.00;105553;1252;1044666;-81
2023/06/02 11:02:56;;;;;;;7.30;4.90;;;;;;;-128.00;-1.00;-1.00;105572;1253;1006344;-81
2023/06/02 11:05:24;;;;;;;15.30;5.80;;;;;;;-128.00;-1.00;-1.00;105533;1254;1004416;-79
2023/06/02 11:08:09;;;;;;;8.00;5.00;;;;;;;-128.00;-1.00;-1.00;105582;1253;1004201;-79
2023/06/02 11:10:42;;;;;;;12.20;5.40;;;;;;;-128.00;-1.00;-1.00;105583;1254;1059553;-79
2023/06/02 11:13:09;;;;;;;9.80;4.80;;;;;;;-128.00;-1.00;-1.00;105529;1252;1044456;-80
2023/06/02 11:15:36;;;;;;;9.40;5.10;;;;;;;-128.00;-1.00;-1.00;105554;1254;1004177;-81